Atkinsonville, Indiana
Current Conditions -  °F | °C
As of 6:55 PM on Monday 22 Dec 2014 (Local Time) from K4I7 Reporting Station
Overcast Overcast  
Wind Chill: 38°   Ceiling: 6000
Heat Index: 43°   Visibility: 7mi
Dew Point: 37°   Wind: 8mph
Humidity: 81%   Direction: 130°SE
Pressure: 29.7"   Gusts: NA
Location:  39.4501°N, 86.975°W
Report Text: K4I7 222355Z AUTO 13007KT 7SM SCT023 SCT029 OVC060 06/03 A2970 RMK AO2 P0001
Loading
Personal Weather Stations






























Interactive Weather Map New forecast layout! Learn more

10-Day Weather Forecast

Advertisements
Track Severe Weather on mobile